sensor_id;sensor_type;location;lat;lon;timestamp;noise_LAeq;noise_LA_min;noise_LA_max;noise_LA01;noise_LA95
69615;Laerm;56821;52.486;4.680;2023-03-15T00:00:07;41.76;31.49;57.55;;
69615;Laerm;56821;52.486;4.680;2023-03-15T00:00:19;32.53;30.18;39.47;;
69615;Laerm;56821;52.486;4.680;2023-03-15T00:00:29;33.07;30.47;43.15;;
69615;Laerm;56821;52.486;4.680;2023-03-15T00:00:40;34.97;30.69;49.31;;
69615;Laerm;56821;52.486;4.680;2023-03-15T00:00:52;32.85;30.40;40.67;;
69615;Laerm;56821;52.486;4.680;2023-03-15T00:01:07;33.31;30.35;43.03;;
69615;Laerm;56821;52.486;4.680;2023-03-15T00:01:19;36.67;30.74;46.36;;
69615;Laerm;56821;52.486;4.680;2023-03-15T00:01:30;38.13;34.14;40.92;;
69615;Laerm;56821;52.486;4.680;2023-03-15T00:01:40;39.30;35.80;47.33;;
69615;Laerm;56821;52.486;4.680;2023-03-15T00:01:50;40.93;36.71;43.44;;
69615;Laerm;56821;52.486;4.680;2023-03-15T00:02:01;40.62;36.31;43.87;;
69615;Laerm;56821;52.486;4.680;2023-03-15T00:02:11;41.01;36.41;53.14;;
69615;Laerm;56821;52.486;4.680;2023-03-15T00:02:21;36.70;33.35;48.54;;
69615;Laerm;56821;52.486;4.680;2023-03-15T00:02:32;35.96;33.17;43.90;;
69615;Laerm;56821;52.486;4.680;2023-03-15T00:02:42;36.00;33.93;39.30;;
69615;Laerm;56821;52.486;4.680;2023-03-15T00:02:52;36.38;33.26;39.69;;
69615;Laerm;56821;52.486;4.680;2023-03-15T00:03:02;35.28;32.99;38.53;;
69615;Laerm;56821;52.486;4.680;2023-03-15T00:03:13;36.09;33.06;39.76;;
69615;Laerm;56821;52.486;4.680;2023-03-15T00:03:26;37.84;34.55;44.69;;
69615;Laerm;56821;52.486;4.680;2023-03-15T00:03:36;38.53;35.33;42.63;;
69615;Laerm;56821;52.486;4.680;2023-03-15T00:03:47;36.93;33.70;42.82;;
69615;Laerm;56821;52.486;4.680;2023-03-15T00:03:57;33.38;31.77;35.12;;
69615;Laerm;56821;52.486;4.680;2023-03-15T00:04:08;33.97;31.44;39.02;;
69615;Laerm;56821;52.486;4.680;2023-03-15T00:04:18;36.42;32.83;40.51;;
69615;Laerm;56821;52.486;4.680;2023-03-15T00:04:28;37.52;35.08;43.25;;
69615;Laerm;56821;52.486;4.680;2023-03-15T00:04:41;37.07;33.91;41.71;;
69615;Laerm;56821;52.486;4.680;2023-03-15T00:04:51;36.18;33.53;46.73;;
69615;Laerm;56821;52.486;4.680;2023-03-15T00:05:04;34.22;31.85;41.34;;
69615;Laerm;56821;52.486;4.680;2023-03-15T00:05:14;34.73;32.93;38.71;;
69615;Laerm;56821;52.486;4.680;2023-03-15T00:05:24;35.37;32.69;40.93;;
69615;Laerm;56821;52.486;4.680;2023-03-15T00:05:35;34.88;32.12;39.63;;
69615;Laerm;56821;52.486;4.680;2023-03-15T00:05:45;33.57;31.42;35.58;;
69615;Laerm;56821;52.486;4.680;2023-03-15T00:05:56;33.12;30.96;35.50;;
69615;Laerm;56821;52.486;4.680;2023-03-15T00:06:06;33.81;31.39;36.53;;
69615;Laerm;56821;52.486;4.680;2023-03-15T00:06:17;34.26;31.35;37.77;;
69615;Laerm;56821;52.486;4.680;2023-03-15T00:06:27;35.18;31.77;45.72;;
69615;Laerm;56821;52.486;4.680;2023-03-15T00:06:37;32.70;30.63;38.39;;
69615;Laerm;56821;52.486;4.680;2023-03-15T00:06:47;33.38;31.45;43.30;;
69615;Laerm;56821;52.486;4.680;2023-03-15T00:06:58;34.90;31.71;42.33;;
69615;Laerm;56821;52.486;4.680;2023-03-15T00:07:08;35.82;33.76;41.70;;
69615;Laerm;56821;52.486;4.680;2023-03-15T00:07:18;36.86;34.24;40.77;;
69615;Laerm;56821;52.486;4.680;2023-03-15T00:07:28;38.91;36.70;41.44;;
69615;Laerm;56821;52.486;4.680;2023-03-15T00:07:38;38.07;35.43;41.22;;
69615;Laerm;56821;52.486;4.680;2023-03-15T00:07:49;38.87;35.96;44.09;;
69615;Laerm;56821;52.486;4.680;2023-03-15T00:07:59;37.42;34.60;41.67;;
69615;Laerm;56821;52.486;4.680;2023-03-15T00:08:10;38.08;35.67;41.67;;
69615;Laerm;56821;52.486;4.680;2023-03-15T00:08:21;37.55;34.58;39.89;;
69615;Laerm;56821;52.486;4.680;2023-03-15T00:08:31;36.05;32.80;46.19;;
69615;Laerm;56821;52.486;4.680;2023-03-15T00:08:42;35.53;32.23;38.12;;
69615;Laerm;56821;52.486;4.680;2023-03-15T00:08:56;34.29;31.75;39.77;;
69615;Laerm;56821;52.486;4.680;2023-03-15T00:09:06;36.95;33.49;42.19;;
69615;Laerm;56821;52.486;4.680;2023-03-15T00:09:16;36.66;33.35;40.28;;
69615;Laerm;56821;52.486;4.680;2023-03-15T00:09:27;39.05;35.14;44.60;;
69615;Laerm;56821;52.486;4.680;2023-03-15T00:09:37;36.68;34.33;40.03;;
69615;Laerm;56821;52.486;4.680;2023-03-15T00:09:47;38.03;33.85;51.25;;
69615;Laerm;56821;52.486;4.680;2023-03-15T00:09:57;34.94;32.47;42.32;;
69615;Laerm;56821;52.486;4.680;2023-03-15T00:10:08;35.07;32.03;41.43;;
69615;Laerm;56821;52.486;4.680;2023-03-15T00:10:18;33.51;30.80;43.77;;
69615;Laerm;56821;52.486;4.680;2023-03-15T00:10:28;39.09;35.17;41.75;;
69615;Laerm;56821;52.486;4.680;2023-03-15T00:10:42;39.75;36.92;42.08;;
69615;Laerm;56821;52.486;4.680;2023-03-15T00:10:53;37.02;34.07;40.16;;
69615;Laerm;56821;52.486;4.680;2023-03-15T00:11:03;37.03;33.46;48.14;;
69615;Laerm;56821;52.486;4.680;2023-03-15T00:11:14;39.24;33.14;51.25;;
69615;Laerm;56821;52.486;4.680;2023-03-15T00:11:25;37.11;33.94;48.14;;
69615;Laerm;56821;52.486;4.680;2023-03-15T00:11:35;34.00;31.76;37.36;;
69615;Laerm;56821;52.486;4.680;2023-03-15T00:11:45;33.54;31.81;35.74;;
69615;Laerm;56821;52.486;4.680;2023-03-15T00:11:55;35.21;32.50;37.70;;
69615;Laerm;56821;52.486;4.680;2023-03-15T00:12:05;34.15;31.83;37.34;;
69615;Laerm;56821;52.486;4.680;2023-03-15T00:12:16;33.59;31.80;36.61;;
69615;Laerm;56821;52.486;4.680;2023-03-15T00:12:26;34.57;32.44;38.99;;
69615;Laerm;56821;52.486;4.680;2023-03-15T00:12:36;34.59;32.06;37.69;;
69615;Laerm;56821;52.486;4.680;2023-03-15T00:12:47;34.95;32.82;36.92;;
69615;Laerm;56821;52.486;4.680;2023-03-15T00:12:57;33.24;30.65;38.24;;
69615;Laerm;56821;52.486;4.680;2023-03-15T00:13:07;34.37;31.63;39.25;;
69615;Laerm;56821;52.486;4.680;2023-03-15T00:13:17;37.35;31.83;51.33;;
69615;Laerm;56821;52.486;4.680;2023-03-15T00:13:28;33.64;32.23;35.49;;
69615;Laerm;56821;52.486;4.680;2023-03-15T00:13:38;35.00;31.69;38.65;;
69615;Laerm;56821;52.486;4.680;2023-03-15T00:13:48;37.10;31.43;48.59;;
69615;Laerm;56821;52.486;4.680;2023-03-15T00:14:00;37.60;34.20;42.20;;
69615;Laerm;56821;52.486;4.680;2023-03-15T00:14:15;37.65;34.19;42.68;;
69615;Laerm;56821;52.486;4.680;2023-03-15T00:14:25;35.72;32.38;39.29;;
69615;Laerm;56821;52.486;4.680;2023-03-15T00:14:35;35.55;32.96;38.49;;
69615;Laerm;56821;52.486;4.680;2023-03-15T00:14:45;36.32;34.07;38.59;;
69615;Laerm;56821;52.486;4.680;2023-03-15T00:14:56;36.51;35.09;37.90;;
69615;Laerm;56821;52.486;4.680;2023-03-15T00:15:06;35.59;33.03;44.54;;
69615;Laerm;56821;52.486;4.680;2023-03-15T00:15:16;36.49;33.28;42.40;;
69615;Laerm;56821;52.486;4.680;2023-03-15T00:15:26;35.87;32.36;47.20;;
69615;Laerm;56821;52.486;4.680;2023-03-15T00:15:43;33.58;31.47;35.66;;
69615;Laerm;56821;52.486;4.680;2023-03-15T00:15:55;36.25;32.06;51.09;;
69615;Laerm;56821;52.486;4.680;2023-03-15T00:16:06;33.62;30.81;44.35;;
69615;Laerm;56821;52.486;4.680;2023-03-15T00:16:16;31.83;30.30;33.51;;
69615;Laerm;56821;52.486;4.680;2023-03-15T00:16:27;33.30;29.79;47.06;;
69615;Laerm;56821;52.486;4.680;2023-03-15T00:16:37;35.16;30.24;47.61;;
69615;Laerm;56821;52.486;4.680;2023-03-15T00:16:47;35.40;30.38;47.40;;
69615;Laerm;56821;52.486;4.680;2023-03-15T00:16:58;34.79;30.68;46.86;;
69615;Laerm;56821;52.486;4.680;2023-03-15T00:17:08;32.71;30.67;37.13;;
69615;Laerm;56821;52.486;4.680;2023-03-15T00:17:18;34.68;30.38;49.45;;
69615;Laerm;56821;52.486;4.680;2023-03-15T00:17:28;35.79;32.03;39.51;;
69615;Laerm;56821;52.486;4.680;2023-03-15T00:17:38;36.08;33.72;39.73;;
69615;Laerm;56821;52.486;4.680;2023-03-15T00:17:49;37.04;35.12;41.08;;
69615;Laerm;56821;52.486;4.680;2023-03-15T00:17:59;38.19;33.04;56.26;;
69615;Laerm;56821;52.486;4.680;2023-03-15T00:18:12;51.66;33.08;69.73;;
69615;Laerm;56821;52.486;4.680;2023-03-15T00:18:22;38.50;31.53;51.20;;
69615;Laerm;56821;52.486;4.680;2023-03-15T00:18:32;32.71;30.01;37.97;;
69615;Laerm;56821;52.486;4.680;2023-03-15T00:18:43;32.41;30.20;37.69;;
69615;Laerm;56821;52.486;4.680;2023-03-15T00:18:54;31.99;29.89;35.45;;
69615;Laerm;56821;52.486;4.680;2023-03-15T00:19:04;31.68;29.99;34.17;;
69615;Laerm;56821;52.486;4.680;2023-03-15T00:19:14;36.68;31.98;43.57;;
69615;Laerm;56821;52.486;4.680;2023-03-15T00:19:24;33.67;31.81;35.46;;
69615;Laerm;56821;52.486;4.680;2023-03-15T00:19:35;35.67;32.91;39.86;;
69615;Laerm;56821;52.486;4.680;2023-03-15T00:19:45;39.71;34.68;44.29;;
69615;Laerm;56821;52.486;4.680;2023-03-15T00:19:56;39.04;33.10;42.90;;
69615;Laerm;56821;52.486;4.680;2023-03-15T00:20:07;37.21;32.49;43.54;;
69615;Laerm;56821;52.486;4.680;2023-03-15T00:20:18;35.63;32.21;44.46;;
69615;Laerm;56821;52.486;4.680;2023-03-15T00:20:29;35.46;32.24;41.42;;
69615;Laerm;56821;52.486;4.680;2023-03-15T00:20:39;35.15;32.67;37.84;;
69615;Laerm;56821;52.486;4.680;2023-03-15T00:20:49;35.12;32.91;38.46;;
69615;Laerm;56821;52.486;4.680;2023-03-15T00:21:00;36.13;33.69;39.77;;
69615;Laerm;56821;52.486;4.680;2023-03-15T00:21:10;35.32;32.71;38.02;;
69615;Laerm;56821;52.486;4.680;2023-03-15T00:21:20;36.00;32.83;40.60;;
69615;Laerm;56821;52.486;4.680;2023-03-15T00:21:30;34.46;31.99;40.33;;
69615;Laerm;56821;52.486;4.680;2023-03-15T00:21:41;32.71;31.20;34.37;;
69615;Laerm;56821;52.486;4.680;2023-03-15T00:21:52;34.12;30.88;51.52;;
69615;Laerm;56821;52.486;4.680;2023-03-15T00:22:02;39.97;31.68;53.30;;
69615;Laerm;56821;52.486;4.680;2023-03-15T00:22:12;32.81;30.65;41.76;;
69615;Laerm;56821;52.486;4.680;2023-03-15T00:22:23;33.48;30.34;42.51;;
69615;Laerm;56821;52.486;4.680;2023-03-15T00:22:33;43.68;31.70;58.53;;
69615;Laerm;56821;52.486;4.680;2023-03-15T00:22:43;42.20;35.54;54.83;;
69615;Laerm;56821;52.486;4.680;2023-03-15T00:22:53;37.23;33.84;46.72;;
69615;Laerm;56821;52.486;4.680;2023-03-15T00:23:04;37.62;33.74;45.21;;
69615;Laerm;56821;52.486;4.680;2023-03-15T00:23:14;46.73;35.25;58.73;;
69615;Laerm;56821;52.486;4.680;2023-03-15T00:23:24;37.14;34.38;43.91;;
69615;Laerm;56821;52.486;4.680;2023-03-15T00:23:35;38.37;34.01;43.93;;
69615;Laerm;56821;52.486;4.680;2023-03-15T00:23:45;38.07;33.31;43.43;;
69615;Laerm;56821;52.486;4.680;2023-03-15T00:23:55;37.39;34.50;47.95;;
69615;Laerm;56821;52.486;4.680;2023-03-15T00:24:06;38.54;33.55;47.63;;
69615;Laerm;56821;52.486;4.680;2023-03-15T00:24:16;37.09;33.37;48.34;;
69615;Laerm;56821;52.486;4.680;2023-03-15T00:24:26;43.43;32.27;58.36;;
69615;Laerm;56821;52.486;4.680;2023-03-15T00:24:36;35.78;32.38;44.54;;
69615;Laerm;56821;52.486;4.680;2023-03-15T00:24:47;34.50;31.77;39.68;;
69615;Laerm;56821;52.486;4.680;2023-03-15T00:24:57;34.79;33.08;36.56;;
69615;Laerm;56821;52.486;4.680;2023-03-15T00:25:07;37.36;33.98;40.22;;
69615;Laerm;56821;52.486;4.680;2023-03-15T00:25:17;36.46;33.47;39.60;;
69615;Laerm;56821;52.486;4.680;2023-03-15T00:25:28;37.36;34.73;39.57;;
69615;Laerm;56821;52.486;4.680;2023-03-15T00:25:38;34.78;32.77;38.69;;
69615;Laerm;56821;52.486;4.680;2023-03-15T00:25:49;35.86;33.00;38.18;;
69615;Laerm;56821;52.486;4.680;2023-03-15T00:26:00;36.69;33.84;39.31;;
69615;Laerm;56821;52.486;4.680;2023-03-15T00:26:10;38.07;35.56;40.89;;
69615;Laerm;56821;52.486;4.680;2023-03-15T00:26:21;38.47;34.34;43.06;;
69615;Laerm;56821;52.486;4.680;2023-03-15T00:26:31;34.52;32.20;39.32;;
69615;Laerm;56821;52.486;4.680;2023-03-15T00:26:41;33.41;30.80;36.32;;
69615;Laerm;56821;52.486;4.680;2023-03-15T00:26:51;32.76;31.08;34.59;;
69615;Laerm;56821;52.486;4.680;2023-03-15T00:27:02;41.21;32.28;52.55;;
69615;Laerm;56821;52.486;4.680;2023-03-15T00:27:12;36.04;32.58;43.50;;
69615;Laerm;56821;52.486;4.680;2023-03-15T00:27:22;35.98;33.59;45.43;;
69615;Laerm;56821;52.486;4.680;2023-03-15T00:27:32;34.94;32.95;38.42;;
69615;Laerm;56821;52.486;4.680;2023-03-15T00:27:43;35.42;33.33;38.50;;
69615;Laerm;56821;52.486;4.680;2023-03-15T00:27:53;35.77;32.18;47.34;;
69615;Laerm;56821;52.486;4.680;2023-03-15T00:28:03;37.66;32.41;40.59;;
69615;Laerm;56821;52.486;4.680;2023-03-15T00:28:14;39.06;36.22;41.52;;
69615;Laerm;56821;52.486;4.680;2023-03-15T00:28:24;36.03;33.00;40.61;;
69615;Laerm;56821;52.486;4.680;2023-03-15T00:28:35;35.62;30.85;39.65;;
69615;Laerm;56821;52.486;4.680;2023-03-15T00:28:45;31.69;30.01;33.48;;
69615;Laerm;56821;52.486;4.680;2023-03-15T00:28:55;31.51;30.00;33.10;;
69615;Laerm;56821;52.486;4.680;2023-03-15T00:29:05;31.47;29.38;32.99;;
69615;Laerm;56821;52.486;4.680;2023-03-15T00:29:15;33.50;31.15;38.36;;
69615;Laerm;56821;52.486;4.680;2023-03-15T00:29:26;35.89;31.31;43.60;;
69615;Laerm;56821;52.486;4.680;2023-03-15T00:29:36;38.07;33.93;46.97;;
69615;Laerm;56821;52.486;4.680;2023-03-15T00:29:46;35.20;31.20;41.23;;
69615;Laerm;56821;52.486;4.680;2023-03-15T00:29:56;36.69;29.49;45.02;;
69615;Laerm;56821;52.486;4.680;2023-03-15T00:30:07;31.98;30.59;33.66;;
69615;Laerm;56821;52.486;4.680;2023-03-15T00:30:17;31.89;30.12;34.17;;
69615;Laerm;56821;52.486;4.680;2023-03-15T00:30:28;34.22;30.80;38.53;;
69615;Laerm;56821;52.486;4.680;2023-03-15T00:30:38;40.92;37.21;46.13;;
69615;Laerm;56821;52.486;4.680;2023-03-15T00:30:48;41.01;36.04;44.07;;
69615;Laerm;56821;52.486;4.680;2023-03-15T00:31:02;37.07;34.35;42.89;;
69615;Laerm;56821;52.486;4.680;2023-03-15T00:31:23;33.57;30.36;44.33;;
69615;Laerm;56821;52.486;4.680;2023-03-15T00:31:34;32.48;29.96;45.30;;
69615;Laerm;56821;52.486;4.680;2023-03-15T00:31:44;32.66;30.46;40.41;;
69615;Laerm;56821;52.486;4.680;2023-03-15T00:31:55;32.66;30.56;38.74;;
69615;Laerm;56821;52.486;4.680;2023-03-15T00:32:05;31.96;29.97;39.47;;
69615;Laerm;56821;52.486;4.680;2023-03-15T00:32:15;32.77;29.54;40.77;;
69615;Laerm;56821;52.486;4.680;2023-03-15T00:32:25;33.98;31.60;45.52;;
69615;Laerm;56821;52.486;4.680;2023-03-15T00:32:36;33.93;30.07;41.66;;
69615;Laerm;56821;52.486;4.680;2023-03-15T00:32:46;31.91;29.90;39.88;;
69615;Laerm;56821;52.486;4.680;2023-03-15T00:32:56;32.12;29.89;39.81;;
69615;Laerm;56821;52.486;4.680;2023-03-15T00:33:07;34.32;32.26;38.62;;
69615;Laerm;56821;52.486;4.680;2023-03-15T00:33:17;34.85;31.35;43.57;;
69615;Laerm;56821;52.486;4.680;2023-03-15T00:33:27;33.95;31.91;37.97;;
69615;Laerm;56821;52.486;4.680;2023-03-15T00:33:38;36.18;32.71;40.72;;
69615;Laerm;56821;52.486;4.680;2023-03-15T00:33:48;37.41;34.32;49.69;;
69615;Laerm;56821;52.486;4.680;2023-03-15T00:33:58;40.55;37.27;45.40;;
69615;Laerm;56821;52.486;4.680;2023-03-15T00:34:09;42.86;38.90;46.83;;
69615;Laerm;56821;52.486;4.680;2023-03-15T00:34:22;42.36;37.90;46.06;;
69615;Laerm;56821;52.486;4.680;2023-03-15T00:34:36;36.32;33.02;40.07;;
69615;Laerm;56821;52.486;4.680;2023-03-15T00:34:46;34.81;32.40;41.55;;
69615;Laerm;56821;52.486;4.680;2023-03-15T00:34:58;35.91;31.84;48.01;;
69615;Laerm;56821;52.486;4.680;2023-03-15T00:35:09;39.99;30.95;55.70;;
69615;Laerm;56821;52.486;4.680;2023-03-15T00:35:20;36.24;29.93;50.39;;
69615;Laerm;56821;52.486;4.680;2023-03-15T00:35:31;34.12;30.15;45.35;;
69615;Laerm;56821;52.486;4.680;2023-03-15T00:35:43;38.10;32.61;51.11;;
69615;Laerm;56821;52.486;4.680;2023-03-15T00:35:54;37.00;30.13;50.30;;
69615;Laerm;56821;52.486;4.680;2023-03-15T00:36:04;32.15;29.95;41.86;;
69615;Laerm;56821;52.486;4.680;2023-03-15T00:36:15;31.81;29.92;37.12;;
69615;Laerm;56821;52.486;4.680;2023-03-15T00:36:25;35.07;29.64;45.95;;
69615;Laerm;56821;52.486;4.680;2023-03-15T00:36:36;33.94;29.46;43.82;;
69615;Laerm;56821;52.486;4.680;2023-03-15T00:36:46;36.36;31.36;44.60;;
69615;Laerm;56821;52.486;4.680;2023-03-15T00:36:56;33.33;29.80;38.72;;
69615;Laerm;56821;52.486;4.680;2023-03-15T00:37:07;33.71;31.34;38.97;;
69615;Laerm;56821;52.486;4.680;2023-03-15T00:37:17;31.91;30.23;35.69;;
69615;Laerm;56821;52.486;4.680;2023-03-15T00:37:29;34.40;30.27;44.55;;
69615;Laerm;56821;52.486;4.680;2023-03-15T00:37:40;38.65;33.50;44.93;;
69615;Laerm;56821;52.486;4.680;2023-03-15T00:37:53;38.01;32.87;41.71;;
69615;Laerm;56821;52.486;4.680;2023-03-15T00:38:04;35.46;31.24;43.66;;
69615;Laerm;56821;52.486;4.680;2023-03-15T00:38:14;31.43;29.53;34.36;;
69615;Laerm;56821;52.486;4.680;2023-03-15T00:38:24;30.81;29.39;32.58;;
69615;Laerm;56821;52.486;4.680;2023-03-15T00:38:35;30.51;29.13;37.77;;
69615;Laerm;56821;52.486;4.680;2023-03-15T00:38:45;30.59;29.33;33.92;;
69615;Laerm;56821;52.486;4.680;2023-03-15T00:38:56;32.68;29.46;41.63;;
69615;Laerm;56821;52.486;4.680;2023-03-15T00:39:06;34.10;30.84;41.72;;
69615;Laerm;56821;52.486;4.680;2023-03-15T00:39:16;37.33;33.92;42.19;;
69615;Laerm;56821;52.486;4.680;2023-03-15T00:39:26;36.05;33.52;39.02;;
69615;Laerm;56821;52.486;4.680;2023-03-15T00:39:37;36.65;33.84;38.47;;
69615;Laerm;56821;52.486;4.680;2023-03-15T00:39:49;33.77;31.28;36.71;;
69615;Laerm;56821;52.486;4.680;2023-03-15T00:39:59;32.57;30.05;38.59;;
69615;Laerm;56821;52.486;4.680;2023-03-15T00:40:10;32.82;29.56;49.38;;
69615;Laerm;56821;52.486;4.680;2023-03-15T00:40:21;31.80;29.85;39.28;;
69615;Laerm;56821;52.486;4.680;2023-03-15T00:40:31;32.52;29.65;44.38;;
69615;Laerm;56821;52.486;4.680;2023-03-15T00:40:42;31.27;28.64;35.47;;
69615;Laerm;56821;52.486;4.680;2023-03-15T00:40:52;31.75;29.36;37.84;;
69615;Laerm;56821;52.486;4.680;2023-03-15T00:41:03;31.82;30.14;40.08;;
69615;Laerm;56821;52.486;4.680;2023-03-15T00:41:15;31.62;29.43;45.18;;
69615;Laerm;56821;52.486;4.680;2023-03-15T00:41:25;31.43;30.04;35.20;;
69615;Laerm;56821;52.486;4.680;2023-03-15T00:41:35;32.68;30.37;39.97;;
69615;Laerm;56821;52.486;4.680;2023-03-15T00:41:46;37.83;31.15;56.73;;
69615;Laerm;56821;52.486;4.680;2023-03-15T00:41:56;34.70;31.67;41.22;;
69615;Laerm;56821;52.486;4.680;2023-03-15T00:42:06;33.66;31.28;36.37;;
69615;Laerm;56821;52.486;4.680;2023-03-15T00:42:16;34.67;31.80;41.98;;
69615;Laerm;56821;52.486;4.680;2023-03-15T00:42:27;34.84;31.48;41.68;;
69615;Laerm;56821;52.486;4.680;2023-03-15T00:42:38;32.95;30.93;36.98;;
69615;Laerm;56821;52.486;4.680;2023-03-15T00:42:48;32.24;30.27;40.08;;
69615;Laerm;56821;52.486;4.680;2023-03-15T00:42:59;33.37;30.55;36.20;;
69615;Laerm;56821;52.486;4.680;2023-03-15T00:43:09;33.44;31.10;37.06;;
69615;Laerm;56821;52.486;4.680;2023-03-15T00:43:19;32.18;30.16;37.78;;
69615;Laerm;56821;52.486;4.680;2023-03-15T00:43:30;33.36;31.33;36.00;;
69615;Laerm;56821;52.486;4.680;2023-03-15T00:43:40;35.64;31.94;43.32;;
69615;Laerm;56821;52.486;4.680;2023-03-15T00:43:51;34.28;32.26;38.42;;
69615;Laerm;56821;52.486;4.680;2023-03-15T00:44:01;36.71;32.62;44.51;;
69615;Laerm;56821;52.486;4.680;2023-03-15T00:44:13;34.69;31.49;40.11;;
69615;Laerm;56821;52.486;4.680;2023-03-15T00:44:23;35.72;31.75;40.16;;
69615;Laerm;56821;52.486;4.680;2023-03-15T00:44:33;40.54;35.63;48.53;;
69615;Laerm;56821;52.486;4.680;2023-03-15T00:44:44;36.81;32.93;43.65;;
69615;Laerm;56821;52.486;4.680;2023-03-15T00:44:54;34.94;32.41;40.35;;
69615;Laerm;56821;52.486;4.680;2023-03-15T00:45:05;34.51;32.08;41.40;;
69615;Laerm;56821;52.486;4.680;2023-03-15T00:45:16;35.87;33.28;38.01;;
69615;Laerm;56821;52.486;4.680;2023-03-15T00:45:26;34.65;32.16;42.91;;
69615;Laerm;56821;52.486;4.680;2023-03-15T00:45:37;42.46;32.76;61.39;;
69615;Laerm;56821;52.486;4.680;2023-03-15T00:45:48;35.08;31.96;46.11;;
69615;Laerm;56821;52.486;4.680;2023-03-15T00:45:59;34.16;30.71;42.81;;
69615;Laerm;56821;52.486;4.680;2023-03-15T00:46:10;32.24;30.05;40.62;;
69615;Laerm;56821;52.486;4.680;2023-03-15T00:46:20;33.22;30.36;42.99;;
69615;Laerm;56821;52.486;4.680;2023-03-15T00:46:30;35.44;30.99;40.72;;
69615;Laerm;56821;52.486;4.680;2023-03-15T00:46:41;38.24;31.11;52.86;;
69615;Laerm;56821;52.486;4.680;2023-03-15T00:46:51;35.14;31.29;39.11;;
69615;Laerm;56821;52.486;4.680;2023-03-15T00:47:01;32.51;30.56;36.53;;
69615;Laerm;56821;52.486;4.680;2023-03-15T00:47:12;33.64;30.41;38.72;;
69615;Laerm;56821;52.486;4.680;2023-03-15T00:47:23;34.62;31.42;40.86;;
69615;Laerm;56821;52.486;4.680;2023-03-15T00:47:33;31.64;29.31;38.86;;
69615;Laerm;56821;52.486;4.680;2023-03-15T00:47:43;30.54;29.21;32.30;;
69615;Laerm;56821;52.486;4.680;2023-03-15T00:47:54;30.48;29.22;32.56;;
69615;Laerm;56821;52.486;4.680;2023-03-15T00:48:04;30.92;29.10;38.25;;
69615;Laerm;56821;52.486;4.680;2023-03-15T00:48:14;32.24;29.78;43.10;;
69615;Laerm;56821;52.486;4.680;2023-03-15T00:48:25;32.62;30.18;42.75;;
69615;Laerm;56821;52.486;4.680;2023-03-15T00:48:35;32.29;30.14;34.71;;
69615;Laerm;56821;52.486;4.680;2023-03-15T00:48:49;32.30;30.25;40.14;;
69615;Laerm;56821;52.486;4.680;2023-03-15T00:48:59;32.64;30.41;40.93;;
69615;Laerm;56821;52.486;4.680;2023-03-15T00:49:09;32.65;30.38;39.92;;
69615;Laerm;56821;52.486;4.680;2023-03-15T00:49:20;34.29;31.78;37.77;;
69615;Laerm;56821;52.486;4.680;2023-03-15T00:49:31;34.07;31.18;40.33;;
69615;Laerm;56821;52.486;4.680;2023-03-15T00:49:41;38.70;33.63;42.69;;
69615;Laerm;56821;52.486;4.680;2023-03-15T00:49:51;39.06;32.45;45.06;;
69615;Laerm;56821;52.486;4.680;2023-03-15T00:50:02;33.27;30.32;44.50;;
69615;Laerm;56821;52.486;4.680;2023-03-15T00:50:12;35.00;30.87;43.76;;
69615;Laerm;56821;52.486;4.680;2023-03-15T00:50:22;40.89;31.42;51.45;;
69615;Laerm;56821;52.486;4.680;2023-03-15T00:50:33;43.22;35.89;51.75;;
69615;Laerm;56821;52.486;4.680;2023-03-15T00:50:43;35.99;32.73;40.08;;
69615;Laerm;56821;52.486;4.680;2023-03-15T00:51:06;37.75;35.36;39.85;;
69615;Laerm;56821;52.486;4.680;2023-03-15T00:51:18;39.54;34.91;42.97;;
69615;Laerm;56821;52.486;4.680;2023-03-15T00:51:30;38.00;35.24;41.55;;
69615;Laerm;56821;52.486;4.680;2023-03-15T00:51:40;36.27;33.23;40.90;;
69615;Laerm;56821;52.486;4.680;2023-03-15T00:51:53;35.19;32.87;39.19;;
69615;Laerm;56821;52.486;4.680;2023-03-15T00:52:03;41.04;32.71;54.73;;
69615;Laerm;56821;52.486;4.680;2023-03-15T00:52:14;41.85;35.08;48.93;;
69615;Laerm;56821;52.486;4.680;2023-03-15T00:52:24;44.61;41.52;50.82;;
69615;Laerm;56821;52.486;4.680;2023-03-15T00:52:35;42.77;39.30;46.78;;
69615;Laerm;56821;52.486;4.680;2023-03-15T00:52:45;40.15;36.03;44.08;;
69615;Laerm;56821;52.486;4.680;2023-03-15T00:52:55;37.28;33.09;43.96;;
69615;Laerm;56821;52.486;4.680;2023-03-15T00:53:05;34.67;32.01;44.31;;
69615;Laerm;56821;52.486;4.680;2023-03-15T00:53:16;32.87;30.96;40.20;;
69615;Laerm;56821;52.486;4.680;2023-03-15T00:53:26;33.42;31.65;36.15;;
69615;Laerm;56821;52.486;4.680;2023-03-15T00:53:37;38.37;33.84;41.72;;
69615;Laerm;56821;52.486;4.680;2023-03-15T00:53:48;40.05;37.68;42.58;;
69615;Laerm;56821;52.486;4.680;2023-03-15T00:53:58;38.45;34.81;42.21;;
69615;Laerm;56821;52.486;4.680;2023-03-15T00:54:09;38.24;33.76;40.70;;
69615;Laerm;56821;52.486;4.680;2023-03-15T00:54:22;37.12;33.28;51.92;;
69615;Laerm;56821;52.486;4.680;2023-03-15T00:54:33;34.68;31.90;42.61;;
69615;Laerm;56821;52.486;4.680;2023-03-15T00:54:43;33.14;31.10;36.85;;
69615;Laerm;56821;52.486;4.680;2023-03-15T00:54:54;33.31;30.81;42.71;;
69615;Laerm;56821;52.486;4.680;2023-03-15T00:55:04;33.08;30.81;42.41;;
69615;Laerm;56821;52.486;4.680;2023-03-15T00:55:15;31.93;30.40;34.70;;
69615;Laerm;56821;52.486;4.680;2023-03-15T00:55:26;33.60;30.98;42.44;;
69615;Laerm;56821;52.486;4.680;2023-03-15T00:55:36;34.74;32.71;39.32;;
69615;Laerm;56821;52.486;4.680;2023-03-15T00:55:46;36.69;34.40;42.22;;
69615;Laerm;56821;52.486;4.680;2023-03-15T00:55:57;36.75;34.00;39.06;;
69615;Laerm;56821;52.486;4.680;2023-03-15T00:56:17;34.70;31.80;37.71;;
69615;Laerm;56821;52.486;4.680;2023-03-15T00:56:28;35.19;31.92;44.99;;
69615;Laerm;56821;52.486;4.680;2023-03-15T00:56:39;35.29;32.53;46.43;;
69615;Laerm;56821;52.486;4.680;2023-03-15T00:56:50;33.34;30.47;40.75;;
69615;Laerm;56821;52.486;4.680;2023-03-15T00:57:00;32.19;29.59;43.97;;
69615;Laerm;56821;52.486;4.680;2023-03-15T00:57:10;30.84;29.22;32.30;;
69615;Laerm;56821;52.486;4.680;2023-03-15T00:57:21;30.48;29.11;35.71;;
69615;Laerm;56821;52.486;4.680;2023-03-15T00:57:31;31.38;28.98;39.71;;
69615;Laerm;56821;52.486;4.680;2023-03-15T00:57:43;32.47;29.75;42.91;;
69615;Laerm;56821;52.486;4.680;2023-03-15T00:57:53;32.78;30.53;39.70;;
69615;Laerm;56821;52.486;4.680;2023-03-15T00:58:03;35.39;31.69;43.56;;
69615;Laerm;56821;52.486;4.680;2023-03-15T00:58:14;35.66;32.77;45.30;;
69615;Laerm;56821;52.486;4.680;2023-03-15T00:58:24;34.60;32.04;40.77;;
69615;Laerm;56821;52.486;4.680;2023-03-15T00:58:34;35.16;32.74;40.00;;
69615;Laerm;56821;52.486;4.680;2023-03-15T00:58:45;40.12;33.16;57.22;;
69615;Laerm;56821;52.486;4.680;2023-03-15T00:58:55;33.11;30.24;44.59;;
69615;Laerm;56821;52.486;4.680;2023-03-15T00:59:06;33.72;30.92;41.60;;
69615;Laerm;56821;52.486;4.680;2023-03-15T00:59:16;36.72;31.63;41.46;;
69615;Laerm;56821;52.486;4.680;2023-03-15T00:59:27;38.91;33.49;46.09;;
69615;Laerm;56821;52.486;4.680;2023-03-15T00:59:37;36.70;30.76;46.70;;
69615;Laerm;56821;52.486;4.680;2023-03-15T00:59:48;31.82;29.85;34.04;;
69615;Laerm;56821;52.486;4.680;2023-03-15T00:59:58;31.73;29.87;38.30;;